Toab, United Kingdom

12:11 PM GMT on December 04, 2016 (GMT +0000)
Unnamed Road | | Change Station

Elev 183 ft 59.94 °N, 1.31 °W | Updated 12 seconds ago

Mostly Cloudy
Mostly Cloudy
46.6 °F
Feels Like 43 °F
N
6.8
Wind Variable Wind from WSW
Gusts 10.6 mph

Today
High -- | Low -- °F
--% Chance of Precip.
Yesterday
High -- | Low -- °F
Precip. -- in
Pressure 30.27 in
Visibility 6.2 miles
Clouds Scattered Clouds 2000 ft
Mostly Cloudy 4300 ft
Windchill 43 °F
Dew Point 46 °F
Humidity 98%
Rainfall 0.00 in
Snow Depth Not available.
8:45 AM 3:05 PM
Waxing Crescent, 22% visible
METAR EGPB 041150Z 26012KT 9999 SCT020 BKN043 09/05 Q1025 NOSIG
Pressure 30.27 in
Visibility 6.2 miles
Clouds Scattered Clouds 2000 ft
Mostly Cloudy 4300 ft
Windchill 43 °F
Dew Point 46 °F
Humidity 98%
Rainfall 0.00 in
Snow Depth Not available.
8:45 AM 3:05 PM
Waxing Crescent, 22% visible
METAR EGPB 041150Z 26012KT 9999 SCT020 BKN043 09/05 Q1025 NOSIG

10-Day Weather Forecast

×

Almanac

Astronomy

Dec. 04, 2016 Rise Set
Actual Time
Civil Twilight
Nautical Twilight
Astronomical Twilight
Moon
Length of Visible Light
Length of Day
Tomorrow will be .
, % of the Moon is Illuminated

Today's Extremes

Country Highs Country Lows

Community

WunderPhotos

Upload Photos

1,955,591 photos uploaded!

WunderBlog® & News

Nearby

Air Quality

  Air Quality AQ Index Pollutant
Not available.

Snow Depth

Station Depth Elevation

Earthquake Activity

City Distance Mag. Time & Date
Minimum magnitude displayed is 2.5.

Coastal Water Temperatures

Place Temperature

Stations

Nearby Weather Stations

Station Location Temp. Windchill Dew Point Humidity Wind Precip. Elev Updated Type